Main page
METAR-TAF:

METAR-TAF

Airports :

Kassel Airport

Kassel, Germany

latitude: 51-24N, longitude: 009-23E, elevation: 277 m

Current weather observation

The report was made 28 minutes ago, at 07:50 UTC
Wind 7 kt from the South
Temperature 17°C
Humidity 72%
Pressure 1012 hPa
Visibility 10 km or more
Scattered clouds at a height of 2700 ft
Broken clouds at a height of 3200 ft

METAR: EDVK 170750Z 19007KT 9999 SCT027 BKN032 17/12 Q1012

Time: 10:18 (08:18 UTC)

Forecast

The report was made 2 hours and 51 minutes ago, at 05:27 UTC
Forecast valid from 17 at 06 UTC to 17 at 15 UTC
Wind 8 kt from the South
Visibility 10 km or more
Scattered clouds at a height of 2000 ft
Broken clouds at a height of 4000 ft
Probability 30% :
Temporary
from 17 at 07 UTC to 17 at 12 UTC
Scattered clouds at a height of 1400 ft
Broken clouds at a height of 2500 ft, Cumulonimbus.
rain showers,

TAF: EDVK 170527Z 1706/1715 18008KT 9999 SCT020 BKN040 PROB30 TEMPO 1707/1712 SHRA SCT014 BKN025CB

Weather observations and forecasts of more than 4000 airports (METAR and TAF reports).

The available stations are represented by yellow and red dots on the map.

Hover mouse over dot to see the name of the station.

Then click to see weather observations and forecasts.

To change the map : click on the green buttons with a black cross to zoom in, on the green button with a dash to zoom out, or on the green arrows for adjacent maps.


METAR-TAF: